createdAt,value
2023-01-07T00:04:00.044Z,10.20
2023-01-07T00:09:06.945Z,10.18
2023-01-07T00:14:13.530Z,10.19
2023-01-07T00:19:17.532Z,10.16
2023-01-07T00:24:22.621Z,10.08
2023-01-07T00:29:26.402Z,10.06
2023-01-07T00:34:30.425Z,10.09
2023-01-07T00:39:35.578Z,10.01
2023-01-07T00:44:39.344Z,10.03
2023-01-07T00:49:43.164Z,9.99
2023-01-07T00:54:48.288Z,9.97
2023-01-07T00:59:52.337Z,9.98
2023-01-07T01:04:56.098Z,9.88
2023-01-07T01:10:01.472Z,9.84
2023-01-07T01:15:08.863Z,9.85
2023-01-07T01:20:15.516Z,9.81
2023-01-07T01:25:20.798Z,9.73
2023-01-07T01:30:24.776Z,9.70
2023-01-07T01:35:28.881Z,9.72
2023-01-07T01:40:34.603Z,9.67
2023-01-07T01:45:40.153Z,9.69
2023-01-07T01:50:46.748Z,9.63
2023-01-07T01:55:56.760Z,9.58
2023-01-07T02:01:00.834Z,9.57
2023-01-07T02:06:07.184Z,9.53
2023-01-07T02:11:30.122Z,9.55
2023-01-07T02:16:41.734Z,9.54
2023-01-07T02:21:52.828Z,9.49
2023-01-07T02:27:14.824Z,9.54
2023-01-07T02:32:37.151Z,9.45
2023-01-07T02:37:47.954Z,9.40
2023-01-07T02:43:04.124Z,9.43
2023-01-07T02:48:13.384Z,9.46
2023-01-07T02:53:20.679Z,9.45
2023-01-07T02:58:43.141Z,9.42
2023-01-07T03:04:07.091Z,9.42
2023-01-07T03:09:17.842Z,9.39
2023-01-07T03:14:27.561Z,9.37
2023-01-07T03:19:35.706Z,9.35
2023-01-07T03:24:41.884Z,9.33
2023-01-07T03:29:45.763Z,9.33
2023-01-07T03:34:51.106Z,9.38
2023-01-07T03:39:55.288Z,9.40
2023-01-07T03:45:00.373Z,9.43
2023-01-07T03:50:07.493Z,9.44
2023-01-07T03:55:14.129Z,9.43
2023-01-07T04:00:18.177Z,9.52
2023-01-07T04:05:25.747Z,9.51
2023-01-07T04:10:29.861Z,9.53
2023-01-07T04:15:33.744Z,9.49
2023-01-07T04:20:38.955Z,9.50
2023-01-07T04:25:42.997Z,9.45
2023-01-07T04:30:46.879Z,9.42
2023-01-07T04:35:52.705Z,9.41
2023-01-07T04:40:56.745Z,9.40
2023-01-07T04:46:00.858Z,9.38
2023-01-07T04:51:06.564Z,9.40
2023-01-07T04:56:10.605Z,9.40
2023-01-07T05:01:15.294Z,9.45
2023-01-07T05:06:21.191Z,9.47
2023-01-07T05:11:25.438Z,9.52
2023-01-07T05:16:30.348Z,9.53
2023-01-07T05:21:36.401Z,9.55
2023-01-07T05:26:40.499Z,9.57
2023-01-07T05:31:44.558Z,9.59
2023-01-07T05:36:50.807Z,9.56
2023-01-07T05:41:55.591Z,9.57
2023-01-07T05:47:00.454Z,9.55
2023-01-07T05:52:05.867Z,9.56
2023-01-07T05:57:09.615Z,9.56
2023-01-07T06:02:13.430Z,9.54
2023-01-07T06:07:18.545Z,9.55
2023-01-07T06:12:22.418Z,9.60
2023-01-07T06:17:26.220Z,9.59
2023-01-07T06:22:31.255Z,9.55
2023-01-07T06:27:35.018Z,9.54
2023-01-07T06:32:39.551Z,9.49
2023-01-07T06:37:44.742Z,9.58
2023-01-07T06:42:48.505Z,9.49
2023-01-07T06:47:52.262Z,9.46
2023-01-07T06:52:57.871Z,9.46
2023-01-07T06:58:01.681Z,9.50
2023-01-07T07:03:05.417Z,9.40
2023-01-07T07:08:11.348Z,9.39
2023-01-07T07:13:15.248Z,9.32
2023-01-07T07:18:19.489Z,9.33
2023-01-07T07:23:24.563Z,9.32
2023-01-07T07:28:28.291Z,9.33
2023-01-07T07:33:32.072Z,9.34
2023-01-07T07:38:37.220Z,9.37
2023-01-07T07:43:40.929Z,9.26
2023-01-07T07:48:44.710Z,9.30
2023-01-07T07:53:49.806Z,9.24
2023-01-07T07:58:53.589Z,9.14
2023-01-07T08:03:57.295Z,9.19
2023-01-07T08:09:02.747Z,9.15
2023-01-07T08:14:06.585Z,9.23
2023-01-07T08:19:11.236Z,9.26
2023-01-07T08:24:16.364Z,9.26
2023-01-07T08:29:20.126Z,9.27
2023-01-07T08:34:25.047Z,9.31
2023-01-07T08:39:30.250Z,9.45
2023-01-07T08:44:34.653Z,9.39
2023-01-07T08:49:38.395Z,9.43
2023-01-07T08:54:43.544Z,9.49
2023-01-07T08:59:47.319Z,9.47
2023-01-07T09:04:51.112Z,9.56
2023-01-07T09:09:56.213Z,9.58
2023-01-07T09:15:00.113Z,9.65
2023-01-07T09:20:05.254Z,9.63
2023-01-07T09:25:11.176Z,9.63
2023-01-07T09:30:15.028Z,9.74
2023-01-07T09:35:19.321Z,9.75
2023-01-07T09:40:26.999Z,9.83
2023-01-07T09:45:34.116Z,9.84
2023-01-07T09:50:46.083Z,9.88
2023-01-07T09:56:10.962Z,9.97
2023-01-07T10:01:25.353Z,10.06
2023-01-07T10:06:43.622Z,10.13
2023-01-07T10:11:57.684Z,10.25
2023-01-07T10:17:09.507Z,10.27
2023-01-07T10:22:21.937Z,10.32
2023-01-07T10:27:31.856Z,10.45
2023-01-07T10:32:37.131Z,10.55
2023-01-07T10:37:43.648Z,10.65
2023-01-07T10:42:57.922Z,10.77
2023-01-07T10:48:19.225Z,10.83
2023-01-07T10:53:37.017Z,10.92
2023-01-07T10:58:43.795Z,10.95
2023-01-07T11:03:51.494Z,11.04
2023-01-07T11:08:55.231Z,11.15
2023-01-07T11:14:04.789Z,11.22
2023-01-07T11:19:11.944Z,11.31
2023-01-07T11:24:33.816Z,11.50
2023-01-07T11:29:44.348Z,11.48
2023-01-07T11:34:56.289Z,11.59
2023-01-07T11:40:01.654Z,11.58
2023-01-07T11:45:17.579Z,11.70
2023-01-07T11:50:27.347Z,11.58
2023-01-07T11:55:31.609Z,11.80
2023-01-07T12:00:36.702Z,11.83
2023-01-07T12:05:42.020Z,11.64
2023-01-07T12:10:45.778Z,11.83
2023-01-07T12:15:55.059Z,12.01
2023-01-07T12:21:30.833Z,12.21
2023-01-07T12:26:42.238Z,12.17
2023-01-07T12:32:09.161Z,12.26
2023-01-07T12:37:34.864Z,12.14
2023-01-07T12:42:43.034Z,12.10
2023-01-07T12:47:53.493Z,12.08
2023-01-07T12:53:03.661Z,11.92
2023-01-07T12:58:17.392Z,11.90
2023-01-07T13:03:37.926Z,11.63
2023-01-07T13:08:46.433Z,11.60
2023-01-07T13:13:54.271Z,11.55
2023-01-07T13:19:00.849Z,11.50
2023-01-07T13:24:19.166Z,11.57
2023-01-07T13:29:32.374Z,11.58
2023-01-07T13:34:50.522Z,11.72
2023-01-07T13:40:12.921Z,11.84
2023-01-07T13:45:21.023Z,11.74
2023-01-07T13:50:33.696Z,11.72
2023-01-07T13:55:39.809Z,11.75
2023-01-07T14:01:02.429Z,11.57
2023-01-07T14:06:40.017Z,11.53
2023-01-07T14:12:09.337Z,11.62
2023-01-07T14:17:23.095Z,11.47
2023-01-07T14:22:36.655Z,11.44
2023-01-07T14:27:54.542Z,11.42
2023-01-07T14:33:02.300Z,11.28
2023-01-07T14:38:39.584Z,11.27
2023-01-07T14:44:04.015Z,11.15
2023-01-07T14:49:19.525Z,11.16
2023-01-07T14:54:47.690Z,11.12
2023-01-07T15:00:27.924Z,11.05
2023-01-07T15:06:07.221Z,10.97
2023-01-07T15:11:34.686Z,10.85
2023-01-07T15:16:40.390Z,10.90
2023-01-07T15:21:58.521Z,10.90
2023-01-07T15:27:10.784Z,10.84
2023-01-07T15:32:28.791Z,10.71
2023-01-07T15:37:33.187Z,10.66
2023-01-07T15:42:37.305Z,10.60
2023-01-07T15:47:43.447Z,10.57
2023-01-07T15:52:50.499Z,10.55
2023-01-07T15:57:58.592Z,10.54
2023-01-07T16:03:05.391Z,10.57
2023-01-07T16:08:18.303Z,10.43
2023-01-07T16:13:22.021Z,10.32
2023-01-07T16:18:27.865Z,10.12
2023-01-07T16:23:34.140Z,10.03
2023-01-07T16:28:41.360Z,9.98
2023-01-07T16:33:48.440Z,9.83
2023-01-07T16:38:54.555Z,9.73
2023-01-07T16:43:59.222Z,9.75
2023-01-07T16:49:22.739Z,9.72
2023-01-07T16:54:36.985Z,9.65
2023-01-07T16:59:45.810Z,9.51
2023-01-07T17:04:51.262Z,9.36
2023-01-07T17:09:56.420Z,9.27
2023-01-07T17:15:00.491Z,9.19
2023-01-07T17:20:19.092Z,9.17
2023-01-07T17:25:25.884Z,9.14
2023-01-07T17:30:35.434Z,9.06
2023-01-07T17:35:45.256Z,9.08
2023-01-07T17:40:49.205Z,9.15
2023-01-07T17:45:53.041Z,9.07
2023-01-07T17:51:00.543Z,9.02
2023-01-07T17:56:04.740Z,9.08
2023-01-07T18:01:11.444Z,9.05
2023-01-07T18:06:19.234Z,9.07
2023-01-07T18:11:49.433Z,9.03
2023-01-07T18:16:53.456Z,9.03
2023-01-07T18:21:58.649Z,9.03
2023-01-07T18:27:02.424Z,8.92
2023-01-07T18:32:06.611Z,8.94
2023-01-07T18:37:12.485Z,9.00
2023-01-07T18:42:16.736Z,9.04
2023-01-07T18:47:20.570Z,9.11
2023-01-07T18:52:26.096Z,9.20
2023-01-07T18:57:29.887Z,9.26
2023-01-07T19:02:33.899Z,9.33
2023-01-07T19:07:39.074Z,9.35
2023-01-07T19:12:42.909Z,9.41
2023-01-07T19:17:46.788Z,9.41
2023-01-07T19:22:51.912Z,9.48
2023-01-07T19:27:55.607Z,9.43
2023-01-07T19:33:00.943Z,9.46
2023-01-07T19:38:06.795Z,9.49
2023-01-07T19:43:10.576Z,9.47
2023-01-07T19:48:14.416Z,9.54
2023-01-07T19:53:19.471Z,9.51
2023-01-07T19:58:23.557Z,9.47
2023-01-07T20:03:27.350Z,9.41
2023-01-07T20:08:32.468Z,9.39
2023-01-07T20:13:37.958Z,9.45
2023-01-07T20:18:43.877Z,9.45
2023-01-07T20:23:49.434Z,9.48
2023-01-07T20:28:53.492Z,9.43
2023-01-07T20:33:57.564Z,9.45
2023-01-07T20:39:05.851Z,9.43
2023-01-07T20:44:12.425Z,9.44
2023-01-07T20:49:16.676Z,9.46
2023-01-07T20:54:22.423Z,9.46
2023-01-07T20:59:26.211Z,9.45
2023-01-07T21:04:30.480Z,9.45
2023-01-07T21:09:35.565Z,9.45
2023-01-07T21:14:39.358Z,9.49
2023-01-07T21:19:44.074Z,9.48
2023-01-07T21:24:49.176Z,9.53
2023-01-07T21:29:52.943Z,9.53
2023-01-07T21:34:56.937Z,9.52
2023-01-07T21:40:02.186Z,9.59
2023-01-07T21:45:07.186Z,9.55
2023-01-07T21:50:11.017Z,9.50
2023-01-07T21:55:16.176Z,9.49
2023-01-07T22:00:19.974Z,9.53
2023-01-07T22:05:23.778Z,9.49
2023-01-07T22:10:28.945Z,9.44
2023-01-07T22:15:32.772Z,9.40
2023-01-07T22:20:36.644Z,9.44
2023-01-07T22:25:41.890Z,9.46
2023-01-07T22:30:52.203Z,9.53
2023-01-07T22:35:56.413Z,9.55
2023-01-07T22:41:04.136Z,9.58
2023-01-07T22:46:12.211Z,9.57
2023-01-07T22:51:20.102Z,9.62
2023-01-07T22:56:25.809Z,9.63
2023-01-07T23:01:29.572Z,9.61
2023-01-07T23:06:33.455Z,9.65
2023-01-07T23:11:51.552Z,9.65
2023-01-07T23:16:55.861Z,9.57
2023-01-07T23:21:59.758Z,9.59
2023-01-07T23:27:04.973Z,9.61
2023-01-07T23:32:12.318Z,9.61
2023-01-07T23:37:16.344Z,9.59
2023-01-07T23:42:21.485Z,9.57
2023-01-07T23:47:25.395Z,9.60
2023-01-07T23:52:29.136Z,9.61
2023-01-07T23:57:34.424Z,9.61
